sensor_id;sensor_type;location;lat;lon;timestamp;P1;durP1;ratioP1;P2;durP2;ratioP2
31182;SDS011;17813;0.000;0.000;2023-03-04T00:02:11;13.70;;;11.07;;
31182;SDS011;17813;0.000;0.000;2023-03-04T00:04:39;11.43;;;9.77;;
31182;SDS011;17813;0.000;0.000;2023-03-04T00:07:06;13.10;;;10.77;;
31182;SDS011;17813;0.000;0.000;2023-03-04T00:09:33;15.93;;;11.30;;
31182;SDS011;17813;0.000;0.000;2023-03-04T00:12:00;12.80;;;10.67;;
31182;SDS011;17813;0.000;0.000;2023-03-04T00:14:27;13.23;;;11.07;;
31182;SDS011;17813;0.000;0.000;2023-03-04T00:16:54;13.27;;;10.43;;
31182;SDS011;17813;0.000;0.000;2023-03-04T00:19:20;13.00;;;10.53;;
31182;SDS011;17813;0.000;0.000;2023-03-04T00:21:48;14.50;;;10.70;;
31182;SDS011;17813;0.000;0.000;2023-03-04T00:24:14;13.53;;;10.77;;
31182;SDS011;17813;0.000;0.000;2023-03-04T00:26:41;13.80;;;10.93;;
31182;SDS011;17813;0.000;0.000;2023-03-04T00:29:08;13.00;;;9.87;;
31182;SDS011;17813;0.000;0.000;2023-03-04T00:31:36;14.90;;;11.10;;
31182;SDS011;17813;0.000;0.000;2023-03-04T00:34:03;13.03;;;10.23;;
31182;SDS011;17813;0.000;0.000;2023-03-04T00:36:30;14.77;;;11.33;;
31182;SDS011;17813;0.000;0.000;2023-03-04T00:38:57;13.83;;;11.33;;
31182;SDS011;17813;0.000;0.000;2023-03-04T00:41:27;12.83;;;10.10;;
31182;SDS011;17813;0.000;0.000;2023-03-04T02:43:53;17.07;;;13.50;;
31182;SDS011;17813;0.000;0.000;2023-03-04T02:46:21;17.10;;;13.53;;
31182;SDS011;17813;0.000;0.000;2023-03-04T02:48:49;17.00;;;13.40;;
31182;SDS011;17813;0.000;0.000;2023-03-04T02:51:16;15.93;;;12.20;;
31182;SDS011;17813;0.000;0.000;2023-03-04T02:53:43;17.30;;;13.00;;
31182;SDS011;17813;0.000;0.000;2023-03-04T02:56:10;16.23;;;13.20;;
31182;SDS011;17813;0.000;0.000;2023-03-04T02:58:37;15.77;;;12.30;;
31182;SDS011;17813;0.000;0.000;2023-03-04T03:01:04;16.47;;;12.30;;
31182;SDS011;17813;0.000;0.000;2023-03-04T03:03:32;15.40;;;12.10;;
31182;SDS011;17813;0.000;0.000;2023-03-04T03:05:59;16.67;;;12.57;;
31182;SDS011;17813;0.000;0.000;2023-03-04T03:08:25;16.43;;;11.90;;
31182;SDS011;17813;0.000;0.000;2023-03-04T03:10:53;15.03;;;12.00;;
31182;SDS011;17813;0.000;0.000;2023-03-04T03:13:20;17.43;;;12.77;;
31182;SDS011;17813;0.000;0.000;2023-03-04T03:15:47;15.00;;;11.87;;
31182;SDS011;17813;0.000;0.000;2023-03-04T03:18:14;15.57;;;11.93;;
31182;SDS011;17813;0.000;0.000;2023-03-04T03:20:41;16.63;;;12.77;;
31182;SDS011;17813;0.000;0.000;2023-03-04T03:23:08;16.30;;;12.47;;
31182;SDS011;17813;0.000;0.000;2023-03-04T03:25:34;17.80;;;12.30;;
31182;SDS011;17813;0.000;0.000;2023-03-04T03:28:01;16.43;;;12.90;;
31182;SDS011;17813;0.000;0.000;2023-03-04T03:30:28;16.80;;;12.47;;
31182;SDS011;17813;0.000;0.000;2023-03-04T03:32:55;16.97;;;12.07;;
31182;SDS011;17813;0.000;0.000;2023-03-04T03:35:22;18.17;;;12.93;;
31182;SDS011;17813;0.000;0.000;2023-03-04T03:37:49;15.90;;;12.40;;
31182;SDS011;17813;0.000;0.000;2023-03-04T03:40:15;14.80;;;11.43;;
31182;SDS011;17813;0.000;0.000;2023-03-04T03:42:43;16.67;;;12.60;;
31182;SDS011;17813;0.000;0.000;2023-03-04T03:45:10;15.83;;;12.13;;
31182;SDS011;17813;0.000;0.000;2023-03-04T03:47:37;17.90;;;12.20;;
31182;SDS011;17813;0.000;0.000;2023-03-04T03:50:04;16.50;;;12.60;;
31182;SDS011;17813;0.000;0.000;2023-03-04T03:52:31;16.97;;;12.37;;
31182;SDS011;17813;0.000;0.000;2023-03-04T03:54:58;17.13;;;12.37;;
31182;SDS011;17813;0.000;0.000;2023-03-04T03:57:30;15.93;;;12.77;;
31182;SDS011;17813;0.000;0.000;2023-03-04T03:59:56;16.23;;;12.27;;
31182;SDS011;17813;0.000;0.000;2023-03-04T04:02:23;16.73;;;12.23;;
31182;SDS011;17813;0.000;0.000;2023-03-04T04:04:50;16.77;;;12.30;;
31182;SDS011;17813;0.000;0.000;2023-03-04T04:07:17;15.50;;;12.13;;
31182;SDS011;17813;0.000;0.000;2023-03-04T04:09:44;17.07;;;12.83;;
31182;SDS011;17813;0.000;0.000;2023-03-04T04:12:12;15.67;;;12.60;;
31182;SDS011;17813;0.000;0.000;2023-03-04T04:14:41;15.80;;;11.80;;
31182;SDS011;17813;0.000;0.000;2023-03-04T04:17:08;15.60;;;12.50;;
31182;SDS011;17813;0.000;0.000;2023-03-04T04:19:36;16.07;;;12.13;;
31182;SDS011;17813;0.000;0.000;2023-03-04T04:22:05;16.53;;;12.57;;
31182;SDS011;17813;0.000;0.000;2023-03-04T04:24:33;15.20;;;12.20;;
31182;SDS011;17813;0.000;0.000;2023-03-04T04:27:01;16.87;;;13.07;;
31182;SDS011;17813;0.000;0.000;2023-03-04T04:29:29;17.63;;;12.60;;
31182;SDS011;17813;0.000;0.000;2023-03-04T04:31:56;17.33;;;12.50;;
31182;SDS011;17813;0.000;0.000;2023-03-04T04:34:23;15.17;;;11.83;;
31182;SDS011;17813;0.000;0.000;2023-03-04T04:36:50;19.53;;;12.23;;
31182;SDS011;17813;0.000;0.000;2023-03-04T04:39:17;16.27;;;12.53;;
31182;SDS011;17813;0.000;0.000;2023-03-04T04:41:44;17.70;;;13.27;;
31182;SDS011;17813;0.000;0.000;2023-03-04T08:44:19;14.07;;;5.70;;
31182;SDS011;17813;0.000;0.000;2023-03-04T08:46:46;13.30;;;5.77;;
31182;SDS011;17813;0.000;0.000;2023-03-04T08:49:13;11.80;;;5.70;;
31182;SDS011;17813;0.000;0.000;2023-03-04T08:51:46;12.77;;;6.53;;
31182;SDS011;17813;0.000;0.000;2023-03-04T08:54:19;12.37;;;6.07;;
31182;SDS011;17813;0.000;0.000;2023-03-04T08:56:55;10.53;;;5.77;;
31182;SDS011;17813;0.000;0.000;2023-03-04T08:59:23;11.87;;;5.43;;
31182;SDS011;17813;0.000;0.000;2023-03-04T09:01:52;12.97;;;5.67;;
31182;SDS011;17813;0.000;0.000;2023-03-04T09:04:19;9.93;;;5.23;;
31182;SDS011;17813;0.000;0.000;2023-03-04T09:06:46;12.43;;;5.60;;
31182;SDS011;17813;0.000;0.000;2023-03-04T09:09:16;13.47;;;5.20;;
31182;SDS011;17813;0.000;0.000;2023-03-04T09:11:43;13.70;;;5.70;;
31182;SDS011;17813;0.000;0.000;2023-03-04T09:14:10;12.13;;;5.50;;
31182;SDS011;17813;0.000;0.000;2023-03-04T09:16:37;8.77;;;4.83;;
31182;SDS011;17813;0.000;0.000;2023-03-04T09:19:04;12.87;;;5.10;;
31182;SDS011;17813;0.000;0.000;2023-03-04T09:21:31;8.53;;;4.33;;
31182;SDS011;17813;0.000;0.000;2023-03-04T09:23:59;10.17;;;4.67;;
31182;SDS011;17813;0.000;0.000;2023-03-04T09:26:28;9.00;;;4.77;;
31182;SDS011;17813;0.000;0.000;2023-03-04T09:28:57;14.00;;;4.77;;
31182;SDS011;17813;0.000;0.000;2023-03-04T09:31:26;10.97;;;4.93;;
31182;SDS011;17813;0.000;0.000;2023-03-04T09:33:54;10.13;;;4.17;;
31182;SDS011;17813;0.000;0.000;2023-03-04T09:36:27;9.23;;;4.00;;
31182;SDS011;17813;0.000;0.000;2023-03-04T09:39:00;9.63;;;4.50;;
31182;SDS011;17813;0.000;0.000;2023-03-04T09:41:43;8.40;;;4.00;;
31182;SDS011;17813;0.000;0.000;2023-03-04T09:46:48;9.93;;;3.97;;
31182;SDS011;17813;0.000;0.000;2023-03-04T09:49:16;10.37;;;4.40;;
31182;SDS011;17813;0.000;0.000;2023-03-04T09:51:48;11.97;;;4.07;;
31182;SDS011;17813;0.000;0.000;2023-03-04T10:00:12;7.37;;;3.70;;
31182;SDS011;17813;0.000;0.000;2023-03-04T10:02:46;6.70;;;3.20;;
31182;SDS011;17813;0.000;0.000;2023-03-04T10:05:19;5.77;;;3.00;;
31182;SDS011;17813;0.000;0.000;2023-03-04T10:07:57;6.70;;;2.90;;
31182;SDS011;17813;0.000;0.000;2023-03-04T10:10:29;7.23;;;3.07;;
31182;SDS011;17813;0.000;0.000;2023-03-04T10:13:01;8.43;;;3.43;;
31182;SDS011;17813;0.000;0.000;2023-03-04T10:15:37;7.23;;;3.30;;
31182;SDS011;17813;0.000;0.000;2023-03-04T10:21:31;7.77;;;3.10;;
31182;SDS011;17813;0.000;0.000;2023-03-04T10:24:06;6.87;;;3.10;;
31182;SDS011;17813;0.000;0.000;2023-03-04T10:26:40;9.73;;;3.20;;
31182;SDS011;17813;0.000;0.000;2023-03-04T10:29:14;7.27;;;2.83;;
31182;SDS011;17813;0.000;0.000;2023-03-04T10:31:44;6.87;;;2.77;;
31182;SDS011;17813;0.000;0.000;2023-03-04T10:34:14;5.87;;;2.53;;
31182;SDS011;17813;0.000;0.000;2023-03-04T10:39:32;6.53;;;2.67;;
31182;SDS011;17813;0.000;0.000;2023-03-04T10:42:02;4.83;;;2.50;;
31182;SDS011;17813;0.000;0.000;2023-03-04T10:44:31;4.43;;;2.20;;
31182;SDS011;17813;0.000;0.000;2023-03-04T10:46:59;6.83;;;2.70;;
31182;SDS011;17813;0.000;0.000;2023-03-04T10:49:27;4.33;;;2.17;;
31182;SDS011;17813;0.000;0.000;2023-03-04T10:52:02;7.00;;;3.07;;
31182;SDS011;17813;0.000;0.000;2023-03-04T10:55:01;4.03;;;2.33;;
31182;SDS011;17813;0.000;0.000;2023-03-04T10:57:43;5.87;;;2.30;;
31182;SDS011;17813;0.000;0.000;2023-03-04T11:00:31;5.57;;;2.53;;
31182;SDS011;17813;0.000;0.000;2023-03-04T11:05:50;5.03;;;2.37;;
31182;SDS011;17813;0.000;0.000;2023-03-04T11:08:35;3.27;;;1.80;;
31182;SDS011;17813;0.000;0.000;2023-03-04T11:11:10;2.77;;;1.70;;
31182;SDS011;17813;0.000;0.000;2023-03-04T11:14:05;2.87;;;1.77;;
31182;SDS011;17813;0.000;0.000;2023-03-04T11:16:50;3.67;;;1.80;;
31182;SDS011;17813;0.000;0.000;2023-03-04T11:19:37;3.93;;;1.70;;
31182;SDS011;17813;0.000;0.000;2023-03-04T11:22:04;3.60;;;1.70;;
31182;SDS011;17813;0.000;0.000;2023-03-04T11:24:33;3.33;;;1.57;;
31182;SDS011;17813;0.000;0.000;2023-03-04T11:27:03;4.03;;;1.70;;
31182;SDS011;17813;0.000;0.000;2023-03-04T11:34:48;2.53;;;1.70;;
31182;SDS011;17813;0.000;0.000;2023-03-04T11:37:36;2.63;;;1.30;;
31182;SDS011;17813;0.000;0.000;2023-03-04T11:40:17;3.33;;;1.80;;
31182;SDS011;17813;0.000;0.000;2023-03-04T11:43:01;2.87;;;1.63;;
31182;SDS011;17813;0.000;0.000;2023-03-04T12:20:09;3.17;;;1.70;;
31182;SDS011;17813;0.000;0.000;2023-03-04T12:28:39;3.47;;;1.60;;
31182;SDS011;17813;0.000;0.000;2023-03-04T12:31:36;1.80;;;1.47;;
31182;SDS011;17813;0.000;0.000;2023-03-04T14:48:32;1.73;;;1.43;;
31182;SDS011;17813;0.000;0.000;2023-03-04T14:51:00;5.07;;;1.50;;
31182;SDS011;17813;0.000;0.000;2023-03-04T14:53:28;1.97;;;1.23;;
31182;SDS011;17813;0.000;0.000;2023-03-04T14:56:02;2.40;;;1.30;;
31182;SDS011;17813;0.000;0.000;2023-03-04T14:58:35;1.93;;;1.43;;
31182;SDS011;17813;0.000;0.000;2023-03-04T15:03:37;2.27;;;1.40;;
31182;SDS011;17813;0.000;0.000;2023-03-04T15:06:15;1.47;;;1.17;;
31182;SDS011;17813;0.000;0.000;2023-03-04T15:08:45;3.13;;;1.50;;
31182;SDS011;17813;0.000;0.000;2023-03-04T15:11:23;2.10;;;1.60;;
31182;SDS011;17813;0.000;0.000;2023-03-04T15:13:54;2.03;;;1.70;;
31182;SDS011;17813;0.000;0.000;2023-03-04T15:16:25;2.07;;;1.77;;
31182;SDS011;17813;0.000;0.000;2023-03-04T15:18:55;2.73;;;1.60;;
31182;SDS011;17813;0.000;0.000;2023-03-04T15:21:33;1.70;;;1.60;;
31182;SDS011;17813;0.000;0.000;2023-03-04T15:24:03;2.47;;;1.73;;
31182;SDS011;17813;0.000;0.000;2023-03-04T15:26:31;2.07;;;1.87;;
31182;SDS011;17813;0.000;0.000;2023-03-04T15:29:03;4.33;;;2.10;;
31182;SDS011;17813;0.000;0.000;2023-03-04T15:31:38;2.60;;;2.13;;
31182;SDS011;17813;0.000;0.000;2023-03-04T15:34:15;2.97;;;2.40;;
31182;SDS011;17813;0.000;0.000;2023-03-04T15:36:44;3.10;;;2.40;;
31182;SDS011;17813;0.000;0.000;2023-03-04T15:39:14;2.60;;;2.40;;
31182;SDS011;17813;0.000;0.000;2023-03-04T15:41:43;4.60;;;2.50;;
31182;SDS011;17813;0.000;0.000;2023-03-04T15:44:12;3.60;;;2.60;;
31182;SDS011;17813;0.000;0.000;2023-03-04T16:08:14;2.10;;;1.90;;
31182;SDS011;17813;0.000;0.000;2023-03-04T16:23:26;2.23;;;2.00;;
31182;SDS011;17813;0.000;0.000;2023-03-04T16:47:24;2.20;;;2.00;;
31182;SDS011;17813;0.000;0.000;2023-03-04T16:49:52;2.60;;;1.80;;
31182;SDS011;17813;0.000;0.000;2023-03-04T16:52:26;1.90;;;1.80;;
31182;SDS011;17813;0.000;0.000;2023-03-04T16:54:56;3.43;;;2.10;;
31182;SDS011;17813;0.000;0.000;2023-03-04T16:57:25;2.47;;;2.20;;
31182;SDS011;17813;0.000;0.000;2023-03-04T16:59:56;2.30;;;2.10;;
31182;SDS011;17813;0.000;0.000;2023-03-04T17:02:23;2.80;;;2.47;;
31182;SDS011;17813;0.000;0.000;2023-03-04T17:04:52;3.17;;;2.70;;
31182;SDS011;17813;0.000;0.000;2023-03-04T17:07:31;3.10;;;2.80;;
31182;SDS011;17813;0.000;0.000;2023-03-04T17:09:58;3.10;;;2.80;;
31182;SDS011;17813;0.000;0.000;2023-03-04T17:12:26;3.60;;;3.00;;
31182;SDS011;17813;0.000;0.000;2023-03-04T17:14:53;3.23;;;2.87;;
31182;SDS011;17813;0.000;0.000;2023-03-04T17:17:23;2.83;;;2.60;;
31182;SDS011;17813;0.000;0.000;2023-03-04T17:19:52;2.67;;;2.37;;
31182;SDS011;17813;0.000;0.000;2023-03-04T17:22:18;2.70;;;2.50;;
31182;SDS011;17813;0.000;0.000;2023-03-04T17:24:46;2.70;;;2.50;;
31182;SDS011;17813;0.000;0.000;2023-03-04T17:27:12;2.30;;;2.10;;
31182;SDS011;17813;0.000;0.000;2023-03-04T17:29:39;3.13;;;2.07;;
31182;SDS011;17813;0.000;0.000;2023-03-04T17:32:06;3.00;;;2.40;;
31182;SDS011;17813;0.000;0.000;2023-03-04T17:34:34;2.40;;;2.07;;
31182;SDS011;17813;0.000;0.000;2023-03-04T17:37:00;2.70;;;2.10;;
31182;SDS011;17813;0.000;0.000;2023-03-04T17:39:28;3.20;;;2.37;;
31182;SDS011;17813;0.000;0.000;2023-03-04T17:41:54;2.37;;;2.10;;
31182;SDS011;17813;0.000;0.000;2023-03-04T17:44:21;2.30;;;2.10;;
31182;SDS011;17813;0.000;0.000;2023-03-04T18:14:37;2.20;;;2.00;;
31182;SDS011;17813;0.000;0.000;2023-03-04T18:47:50;2.20;;;2.00;;
31182;SDS011;17813;0.000;0.000;2023-03-04T18:50:18;3.93;;;2.13;;
31182;SDS011;17813;0.000;0.000;2023-03-04T18:52:47;5.53;;;2.57;;
31182;SDS011;17813;0.000;0.000;2023-03-04T18:55:18;2.83;;;2.20;;
31182;SDS011;17813;0.000;0.000;2023-03-04T18:57:46;3.20;;;2.23;;
31182;SDS011;17813;0.000;0.000;2023-03-04T19:00:17;2.33;;;2.13;;
31182;SDS011;17813;0.000;0.000;2023-03-04T19:02:46;3.30;;;2.70;;
31182;SDS011;17813;0.000;0.000;2023-03-04T19:05:19;3.77;;;2.40;;
31182;SDS011;17813;0.000;0.000;2023-03-04T19:07:48;3.00;;;2.70;;
31182;SDS011;17813;0.000;0.000;2023-03-04T19:10:16;4.13;;;2.80;;
31182;SDS011;17813;0.000;0.000;2023-03-04T19:12:43;3.03;;;2.60;;
31182;SDS011;17813;0.000;0.000;2023-03-04T19:15:10;2.57;;;2.30;;
31182;SDS011;17813;0.000;0.000;2023-03-04T19:17:38;3.50;;;2.50;;
31182;SDS011;17813;0.000;0.000;2023-03-04T19:20:08;4.40;;;2.60;;
31182;SDS011;17813;0.000;0.000;2023-03-04T19:22:35;3.30;;;2.60;;
31182;SDS011;17813;0.000;0.000;2023-03-04T19:25:02;3.63;;;2.40;;
31182;SDS011;17813;0.000;0.000;2023-03-04T19:27:31;3.70;;;2.40;;
31182;SDS011;17813;0.000;0.000;2023-03-04T19:29:57;6.10;;;2.73;;
31182;SDS011;17813;0.000;0.000;2023-03-04T19:32:24;3.63;;;2.43;;
31182;SDS011;17813;0.000;0.000;2023-03-04T19:34:51;4.27;;;2.70;;
31182;SDS011;17813;0.000;0.000;2023-03-04T19:37:18;2.90;;;2.23;;
31182;SDS011;17813;0.000;0.000;2023-03-04T19:39:45;3.13;;;2.47;;
31182;SDS011;17813;0.000;0.000;2023-03-04T19:42:14;7.77;;;2.60;;
31182;SDS011;17813;0.000;0.000;2023-03-04T19:44:42;3.27;;;2.70;;
31182;SDS011;17813;0.000;0.000;2023-03-04T19:47:12;4.03;;;2.77;;
31182;SDS011;17813;0.000;0.000;2023-03-04T19:49:38;2.87;;;2.30;;
31182;SDS011;17813;0.000;0.000;2023-03-04T19:52:05;2.87;;;2.50;;
31182;SDS011;17813;0.000;0.000;2023-03-04T19:54:32;5.60;;;3.23;;
31182;SDS011;17813;0.000;0.000;2023-03-04T19:56:59;4.07;;;2.80;;
31182;SDS011;17813;0.000;0.000;2023-03-04T19:59:26;3.77;;;2.87;;
31182;SDS011;17813;0.000;0.000;2023-03-04T20:01:52;3.27;;;2.70;;
31182;SDS011;17813;0.000;0.000;2023-03-04T20:04:19;4.13;;;3.10;;
31182;SDS011;17813;0.000;0.000;2023-03-04T20:06:47;5.27;;;2.77;;
31182;SDS011;17813;0.000;0.000;2023-03-04T20:09:15;4.40;;;2.97;;
31182;SDS011;17813;0.000;0.000;2023-03-04T20:11:43;5.07;;;2.70;;
31182;SDS011;17813;0.000;0.000;2023-03-04T20:14:11;4.70;;;2.83;;
31182;SDS011;17813;0.000;0.000;2023-03-04T20:16:38;3.93;;;2.80;;
31182;SDS011;17813;0.000;0.000;2023-03-04T20:19:05;3.90;;;2.70;;
31182;SDS011;17813;0.000;0.000;2023-03-04T20:21:32;5.07;;;2.40;;
31182;SDS011;17813;0.000;0.000;2023-03-04T20:24:00;4.00;;;3.10;;
31182;SDS011;17813;0.000;0.000;2023-03-04T20:26:28;5.57;;;2.73;;
31182;SDS011;17813;0.000;0.000;2023-03-04T20:28:56;4.03;;;2.87;;
31182;SDS011;17813;0.000;0.000;2023-03-04T20:31:25;5.40;;;2.90;;
31182;SDS011;17813;0.000;0.000;2023-03-04T20:33:54;4.17;;;2.53;;
31182;SDS011;17813;0.000;0.000;2023-03-04T20:36:22;4.83;;;2.60;;
31182;SDS011;17813;0.000;0.000;2023-03-04T20:38:51;4.57;;;2.83;;
31182;SDS011;17813;0.000;0.000;2023-03-04T20:41:21;5.57;;;2.67;;
31182;SDS011;17813;0.000;0.000;2023-03-04T20:43:49;4.03;;;2.77;;
31182;SDS011;17813;0.000;0.000;2023-03-04T20:46:28;5.73;;;2.90;;
31182;SDS011;17813;0.000;0.000;2023-03-04T20:49:08;3.10;;;2.37;;
31182;SDS011;17813;0.000;0.000;2023-03-04T20:51:37;4.67;;;2.70;;
31182;SDS011;17813;0.000;0.000;2023-03-04T20:54:04;6.83;;;2.63;;
31182;SDS011;17813;0.000;0.000;2023-03-04T20:56:32;4.63;;;2.60;;
31182;SDS011;17813;0.000;0.000;2023-03-04T20:59:00;3.40;;;2.50;;
31182;SDS011;17813;0.000;0.000;2023-03-04T21:01:29;4.03;;;2.30;;
31182;SDS011;17813;0.000;0.000;2023-03-04T21:03:56;4.83;;;2.53;;
31182;SDS011;17813;0.000;0.000;2023-03-04T21:06:24;4.80;;;2.47;;
31182;SDS011;17813;0.000;0.000;2023-03-04T21:08:54;4.90;;;2.47;;
31182;SDS011;17813;0.000;0.000;2023-03-04T21:11:24;4.47;;;2.57;;
31182;SDS011;17813;0.000;0.000;2023-03-04T21:13:51;4.00;;;2.40;;
31182;SDS011;17813;0.000;0.000;2023-03-04T21:16:21;5.10;;;2.80;;
31182;SDS011;17813;0.000;0.000;2023-03-04T21:18:50;4.57;;;2.50;;
31182;SDS011;17813;0.000;0.000;2023-03-04T21:21:18;4.97;;;2.67;;
31182;SDS011;17813;0.000;0.000;2023-03-04T21:23:50;5.67;;;2.90;;
31182;SDS011;17813;0.000;0.000;2023-03-04T21:26:18;5.53;;;2.70;;
31182;SDS011;17813;0.000;0.000;2023-03-04T21:28:47;6.23;;;2.60;;
31182;SDS011;17813;0.000;0.000;2023-03-04T21:31:16;3.67;;;2.50;;
31182;SDS011;17813;0.000;0.000;2023-03-04T21:33:49;3.60;;;2.43;;
31182;SDS011;17813;0.000;0.000;2023-03-04T21:36:17;5.23;;;2.80;;
31182;SDS011;17813;0.000;0.000;2023-03-04T21:38:45;5.77;;;2.77;;
31182;SDS011;17813;0.000;0.000;2023-03-04T21:41:13;6.97;;;2.80;;
31182;SDS011;17813;0.000;0.000;2023-03-04T21:43:41;4.40;;;2.40;;
31182;SDS011;17813;0.000;0.000;2023-03-04T21:46:09;5.80;;;2.93;;
31182;SDS011;17813;0.000;0.000;2023-03-04T21:48:36;5.90;;;2.63;;
31182;SDS011;17813;0.000;0.000;2023-03-04T21:51:04;7.13;;;2.80;;
31182;SDS011;17813;0.000;0.000;2023-03-04T21:53:33;3.67;;;2.37;;
31182;SDS011;17813;0.000;0.000;2023-03-04T21:56:00;3.47;;;2.33;;
31182;SDS011;17813;0.000;0.000;2023-03-04T21:58:28;5.13;;;2.70;;
31182;SDS011;17813;0.000;0.000;2023-03-04T22:00:56;6.23;;;3.07;;
31182;SDS011;17813;0.000;0.000;2023-03-04T22:03:23;5.00;;;2.60;;
31182;SDS011;17813;0.000;0.000;2023-03-04T22:05:51;5.17;;;3.00;;
31182;SDS011;17813;0.000;0.000;2023-03-04T22:08:19;7.53;;;3.20;;
31182;SDS011;17813;0.000;0.000;2023-03-04T22:10:46;5.27;;;2.90;;
31182;SDS011;17813;0.000;0.000;2023-03-04T22:13:14;5.13;;;2.70;;
31182;SDS011;17813;0.000;0.000;2023-03-04T22:15:41;5.23;;;2.80;;
31182;SDS011;17813;0.000;0.000;2023-03-04T22:18:09;4.63;;;2.60;;
31182;SDS011;17813;0.000;0.000;2023-03-04T22:20:38;6.40;;;2.80;;
31182;SDS011;17813;0.000;0.000;2023-03-04T22:23:08;4.57;;;2.73;;
31182;SDS011;17813;0.000;0.000;2023-03-04T22:25:36;5.37;;;2.70;;
31182;SDS011;17813;0.000;0.000;2023-03-04T22:28:04;5.93;;;2.47;;
31182;SDS011;17813;0.000;0.000;2023-03-04T22:30:35;5.80;;;2.73;;
31182;SDS011;17813;0.000;0.000;2023-03-04T22:33:02;7.20;;;2.87;;
31182;SDS011;17813;0.000;0.000;2023-03-04T22:35:28;7.50;;;2.67;;
31182;SDS011;17813;0.000;0.000;2023-03-04T22:37:56;4.67;;;2.60;;
31182;SDS011;17813;0.000;0.000;2023-03-04T22:40:22;5.73;;;2.50;;
31182;SDS011;17813;0.000;0.000;2023-03-04T22:42:50;5.27;;;2.40;;
31182;SDS011;17813;0.000;0.000;2023-03-04T22:45:17;7.17;;;2.57;;
31182;SDS011;17813;0.000;0.000;2023-03-04T22:47:47;6.13;;;2.67;;
31182;SDS011;17813;0.000;0.000;2023-03-04T22:50:16;7.33;;;2.90;;
31182;SDS011;17813;0.000;0.000;2023-03-04T22:52:45;5.87;;;2.60;;
31182;SDS011;17813;0.000;0.000;2023-03-04T22:55:16;6.43;;;2.23;;
31182;SDS011;17813;0.000;0.000;2023-03-04T22:57:44;5.83;;;2.50;;
31182;SDS011;17813;0.000;0.000;2023-03-04T23:00:14;6.90;;;2.37;;
31182;SDS011;17813;0.000;0.000;2023-03-04T23:02:45;5.50;;;2.37;;
31182;SDS011;17813;0.000;0.000;2023-03-04T23:05:13;6.73;;;2.30;;
31182;SDS011;17813;0.000;0.000;2023-03-04T23:07:41;4.53;;;2.00;;
31182;SDS011;17813;0.000;0.000;2023-03-04T23:10:27;4.83;;;2.13;;
31182;SDS011;17813;0.000;0.000;2023-03-04T23:12:54;4.90;;;2.27;;
31182;SDS011;17813;0.000;0.000;2023-03-04T23:15:21;6.80;;;2.40;;
31182;SDS011;17813;0.000;0.000;2023-03-04T23:17:51;3.90;;;2.20;;
31182;SDS011;17813;0.000;0.000;2023-03-04T23:20:19;7.00;;;2.57;;
31182;SDS011;17813;0.000;0.000;2023-03-04T23:22:48;5.13;;;2.10;;
31182;SDS011;17813;0.000;0.000;2023-03-04T23:25:15;3.60;;;1.93;;
31182;SDS011;17813;0.000;0.000;2023-03-04T23:27:42;2.53;;;1.77;;
31182;SDS011;17813;0.000;0.000;2023-03-04T23:30:12;2.77;;;1.87;;
31182;SDS011;17813;0.000;0.000;2023-03-04T23:32:42;6.07;;;2.20;;
31182;SDS011;17813;0.000;0.000;2023-03-04T23:35:11;4.57;;;1.90;;
31182;SDS011;17813;0.000;0.000;2023-03-04T23:37:37;3.60;;;2.07;;
31182;SDS011;17813;0.000;0.000;2023-03-04T23:40:04;2.83;;;1.87;;
31182;SDS011;17813;0.000;0.000;2023-03-04T23:42:32;3.20;;;1.90;;
31182;SDS011;17813;0.000;0.000;2023-03-04T23:44:58;3.33;;;1.83;;
31182;SDS011;17813;0.000;0.000;2023-03-04T23:47:25;3.83;;;2.10;;
31182;SDS011;17813;0.000;0.000;2023-03-04T23:49:52;3.23;;;1.83;;
31182;SDS011;17813;0.000;0.000;2023-03-04T23:52:19;3.10;;;1.70;;
31182;SDS011;17813;0.000;0.000;2023-03-04T23:54:46;4.83;;;1.97;;
31182;SDS011;17813;0.000;0.000;2023-03-04T23:57:14;4.20;;;2.00;;
31182;SDS011;17813;0.000;0.000;2023-03-04T23:59:43;3.37;;;2.03;;
